Latest Weather Observations for Kiama

IDN60801

Issued at 5:04 pm EST Saturday 18 April 2015 (issued every 30 minutes, with the page automatically refreshed every 10 minutes)

About weather observations | Map of weather stations | Latest weather observations for NSW | Other Formats
Station Details ID: 068242 Name: KIAMA (BOMBO HEADLAND) Lat: -34.65 Lon: 150.86 Height: 15.5 m
Data from the previous 72 hours. | See also: Recent months at Kiama
Date/Time
EST
Temp
°C
App
Temp
°C
Dew
Point
Rel
Hum
%
Delta-T
°C
Wind Press
QNH
hPa
Press
MSL
hPa
Rain
since 9 am
mm
Dir
 
Spd
km/h
Gust
km/h
Spd
kts
Gust
kts
18/05:00pm 22.5 21.1 18.9 80 2.3 N 24 33 13 18 - - 0.0
18/04:30pm 22.3 22.0 19.1 82 2.0 N 19 30 10 16 - - 0.0
18/04:00pm 22.6 24.3 19.4 82 2.0 NNW 9 17 5 9 - - 0.0
18/03:30pm 22.3 24.0 19.3 83 1.9 N 9 13 5 7 - - 0.0
18/03:00pm 22.2 23.8 19.2 83 1.9 N 9 17 5 9 - - 0.0
18/02:30pm 22.6 23.8 19.0 80 2.3 N 11 19 6 10 - - 0.0
18/02:00pm 22.6 22.5 18.8 79 2.4 NNE 17 26 9 14 - - 0.0
18/01:30pm 23.1 24.4 19.3 79 2.4 ENE 11 15 6 8 - - 0.0
18/01:00pm 22.9 22.9 18.9 78 2.5 NE 17 24 9 13 - - 0.0
18/12:30pm 23.3 23.4 19.2 78 2.6 NNE 17 22 9 12 - - 0.0
18/12:00pm 22.8 21.8 19.6 82 2.0 NE 24 35 13 19 - - 0.0
18/11:30am 22.1 20.6 19.5 85 1.7 NE 26 32 14 17 - - 0.0
18/11:00am 21.7 20.9 19.3 86 1.5 NE 22 30 12 16 - - 0.0
18/10:30am 21.6 19.6 19.2 86 1.5 NE 28 32 15 17 - - 0.0
18/10:00am 21.9 20.4 19.5 86 1.5 NE 26 30 14 16 - - 0.0
18/09:30am 21.5 19.8 18.9 85 1.6 NE 26 28 14 15 - - 0.0
18/09:00am 21.8 21.7 18.8 83 1.9 NNE 17 24 9 13 - - 3.0
18/08:30am 21.8 22.5 18.8 83 1.9 NNE 13 24 7 13 - - 3.0
18/08:00am 21.1 23.0 18.5 85 1.6 N 6 13 3 7 - - 3.0
18/07:30am 20.7 22.3 18.3 86 1.5 NNE 7 9 4 5 - - 3.0
18/07:00am 20.6 21.4 18.2 86 1.5 NNE 11 17 6 9 - - 3.0
18/06:30am 20.3 21.9 17.9 86 1.5 N 6 9 3 5 - - 3.0
18/06:00am 20.6 22.3 18.0 85 1.6 NNE 6 9 3 5 - - 3.0
18/05:30am 20.8 22.0 18.2 85 1.6 N 9 13 5 7 - - 3.0
18/05:00am 21.1 22.8 18.5 85 1.6 N 7 11 4 6 - - 3.0
18/04:30am 20.9 22.2 18.5 86 1.5 N 9 15 5 8 - - 3.0
18/04:00am 20.9 22.7 18.7 87 1.4 N 7 19 4 10 - - 3.0
18/03:30am 20.6 22.1 18.9 90 1.1 NNW 9 17 5 9 - - 3.0
18/03:00am 20.5 21.6 18.8 90 1.1 NNE 11 15 6 8 - - 3.0
18/02:30am 20.4 21.1 18.9 91 0.9 NNE 13 17 7 9 - - 3.0
18/02:00am 20.5 20.9 19.0 91 0.9 N 15 20 8 11 - - 3.0
18/01:30am 20.2 21.7 18.9 92 0.8 N 9 17 5 9 - - 3.0
18/01:00am 19.9 22.6 18.6 92 0.8 N 2 7 1 4 - - 3.0
18/12:30am 20.1 22.0 18.6 91 0.9 NNW 6 9 3 5 - - 3.0
18/12:00am 20.2 21.6 18.7 91 0.9 N 9 15 5 8 - - 3.0
 
Date/Time
EST
Temp
°C
App
Temp
°C
Dew
Point
Rel
Hum
%
Delta-T
°C
Wind Press
QNH
hPa
Press
MSL
hPa
Rain
since 9 am
mm
Dir
 
Spd
km/h
Gust
km/h
Spd
kts
Gust
kts
17/11:30pm 20.4 19.8 18.9 91 0.9 N 20 26 11 14 - - 3.0
17/11:00pm 20.4 20.0 18.9 91 0.9 N 19 28 10 15 - - 3.0
17/10:30pm 20.1 21.2 18.8 92 0.8 N 11 20 6 11 - - 3.0
17/10:00pm 20.0 20.3 18.7 92 0.8 N 15 20 8 11 - - 3.0
17/09:30pm 19.9 20.9 18.6 92 0.8 N 11 19 6 10 - - 3.0
17/09:00pm 20.1 19.5 18.8 92 0.8 N 20 24 11 13 - - 3.0
17/08:30pm 20.0 19.9 18.7 92 0.8 N 17 24 9 13 - - 3.0
17/08:00pm 20.0 21.1 18.8 93 0.8 N 11 19 6 10 - - 3.0
17/07:30pm 20.0 20.3 18.8 93 0.8 N 15 24 8 13 - - 3.0
17/07:00pm 20.0 19.6 18.8 93 0.8 N 19 26 10 14 - - 3.0
17/06:30pm 19.9 19.8 18.7 93 0.7 NNE 17 22 9 12 - - 3.0
17/06:00pm 19.7 19.9 18.5 93 0.7 NNE 15 20 8 11 - - 3.0
17/05:30pm 19.6 21.4 18.4 93 0.7 N 6 9 3 5 - - 3.0
17/05:00pm 19.6 20.5 18.4 93 0.7 N 11 17 6 9 - - 3.0
17/04:30pm 19.4 19.8 18.2 93 0.7 N 13 19 7 10 - - 3.0
17/04:00pm 19.4 18.7 18.2 93 0.7 NNE 19 26 10 14 - - 3.0
17/03:30pm 19.4 19.4 18.2 93 0.7 NNE 15 20 8 11 - - 3.0
17/03:00pm 19.3 18.9 18.1 93 0.7 NNE 17 24 9 13 - - 2.8
17/02:30pm 19.3 18.9 18.1 93 0.7 NNE 17 24 9 13 - - 2.8
17/02:00pm 19.3 18.9 18.1 93 0.7 NNE 17 24 9 13 - - 2.8
17/01:30pm 19.3 18.5 18.1 93 0.7 NNE 19 24 10 13 - - 2.8
17/01:00pm 19.4 18.7 18.2 93 0.7 NNE 19 22 10 12 - - 2.6
17/12:30pm 19.4 20.5 18.1 92 0.8 N 9 13 5 7 - - 2.6
17/12:00pm 19.4 21.9 18.1 92 0.8 N 2 6 1 3 - - 2.2
17/11:30am 19.6 22.5 18.1 91 0.9 CALM 0 2 0 1 - - 2.0
17/11:00am 19.5 22.3 18.0 91 0.9 CALM 0 0 0 0 - - 1.4
17/10:30am 19.7 21.8 18.2 91 0.9 NE 4 9 2 5 - - 0.8
17/10:00am 19.6 20.7 18.1 91 0.9 NE 9 13 5 7 - - 0.2
17/09:30am 19.6 20.7 18.1 91 0.9 NE 9 15 5 8 - - 0.0
17/09:00am 19.3 20.7 17.8 91 0.9 NE 7 13 4 7 - - 5.6
17/08:30am 19.1 21.0 17.6 91 0.9 ESE 4 7 2 4 - - 5.0
17/08:00am 19.2 20.7 17.7 91 0.9 ENE 6 9 3 5 - - 4.6
17/07:30am 19.1 20.4 17.6 91 0.9 ENE 7 15 4 8 - - 4.2
17/07:00am 19.0 21.3 17.7 92 0.8 SSE 2 7 1 4 - - 4.2
17/06:30am 18.6 20.4 17.3 92 0.8 SW 4 6 2 3 - - 4.0
17/06:00am 18.4 19.6 16.9 91 0.9 WSW 6 9 3 5 - - 3.8
17/05:30am 18.6 20.7 17.1 91 0.9 SW 2 4 1 2 - - 3.2
17/05:00am 18.8 20.0 17.3 91 0.9 SSW 7 9 4 5 - - 2.6
17/04:30am 18.8 19.5 17.1 90 1.0 SSW 9 13 5 7 - - 2.0
17/04:00am 19.1 19.1 17.2 89 1.2 SSW 13 15 7 8 - - 1.2
17/03:30am 19.4 19.9 17.5 89 1.2 SSW 11 15 6 8 - - 1.2
17/03:00am 19.3 19.8 17.4 89 1.2 S 11 13 6 7 - - 1.2
17/02:30am 19.3 19.0 17.4 89 1.2 S 15 20 8 11 - - 1.2
17/02:00am 19.3 19.0 17.3 88 1.2 S 15 20 8 11 - - 1.2
17/01:30am 19.6 19.8 17.6 88 1.2 S 13 17 7 9 - - 0.8
17/01:00am 19.8 19.7 17.8 88 1.2 SSW 15 20 8 11 - - 0.8
17/12:30am 19.6 21.0 17.7 89 1.2 SSW 7 11 4 6 - - 0.8
17/12:00am 19.7 20.7 17.8 89 1.2 SSW 9 13 5 7 - - 0.8
 
Date/Time
EST
Temp
°C
App
Temp
°C
Dew
Point
Rel
Hum
%
Delta-T
°C
Wind Press
QNH
hPa
Press
MSL
hPa
Rain
since 9 am
mm
Dir
 
Spd
km/h
Gust
km/h
Spd
kts
Gust
kts
16/11:30pm 19.6 19.8 17.7 89 1.2 SSW 13 17 7 9 - - 0.8
16/11:00pm 19.7 19.2 17.7 88 1.2 SSW 17 20 9 11 - - 0.8
16/10:30pm 20.1 20.8 17.9 87 1.4 SSW 11 15 6 8 - - 0.8
16/10:00pm 20.3 21.7 17.9 86 1.5 SSW 7 9 4 5 - - 0.6
16/09:30pm 20.4 20.7 18.0 86 1.5 S 13 19 7 10 - - 0.6
16/09:00pm 20.4 21.3 17.6 84 1.7 SSW 9 15 5 8 - - 0.0
16/08:30pm 20.8 21.1 17.8 83 1.9 SSE 13 19 7 10 - - 0.0
16/08:00pm 20.9 20.1 17.9 83 1.9 SSE 19 22 10 12 - - 0.0
16/07:30pm 20.9 20.1 17.9 83 1.9 S 19 24 10 13 - - 0.0
16/07:00pm 21.0 20.2 18.0 83 1.9 S 19 24 10 13 - - 0.0
16/06:30pm 20.9 20.0 18.3 85 1.6 SSE 20 26 11 14 - - 0.0
16/06:00pm 20.8 20.5 18.2 85 1.6 S 17 22 9 12 - - 0.0
16/05:30pm 21.0 20.4 18.4 85 1.6 S 19 26 10 14 - - 0.0
16/05:00pm 21.0 20.8 18.4 85 1.6 S 17 22 9 12 - - 0.0
16/04:30pm 21.0 20.2 18.4 85 1.6 S 20 28 11 15 - - 0.0
16/04:00pm 21.3 20.2 18.7 85 1.6 S 22 30 12 16 - - 0.0
16/03:30pm 21.2 19.7 18.6 85 1.6 S 24 32 13 17 - - 0.0
16/03:00pm 21.4 18.8 18.6 84 1.8 SSE 30 35 16 19 - - 0.0
16/02:30pm 21.8 19.6 18.8 83 1.9 S 28 39 15 21 - - 0.0
16/02:00pm 22.0 18.8 18.2 79 2.4 SSE 32 39 17 21 - - 0.0
16/01:30pm 22.6 19.0 17.7 74 3.0 S 33 44 18 24 - - 0.0
16/01:00pm 23.7 20.9 17.2 67 4.0 S 28 39 15 21 - - 0.0
16/12:52pm 25.9 25.4 15.9 54 6.1 SW 13 33 7 18 - - 0.0
16/12:30pm 30.9 30.3 14.5 37 10.0 W 11 20 6 11 - - 0.0
16/12:00pm 30.4 28.7 13.7 36 10.0 W 15 22 8 12 - - 0.0
16/11:30am 30.1 28.1 13.8 37 9.8 W 17 26 9 14 - - 0.0
16/11:00am 30.2 28.8 13.5 36 10.0 W 13 22 7 12 - - 0.0
16/10:30am 29.2 26.5 13.0 37 9.6 WNW 19 30 10 16 - - 0.0
16/10:00am 29.2 26.9 13.0 37 9.6 WNW 17 30 9 16 - - 0.0
16/09:30am 28.8 28.7 15.0 43 8.4 WNW 9 15 5 8 - - 0.0
16/09:00am 27.7 26.5 14.0 43 8.2 W 13 20 7 11 - - 0.0
16/08:30am 26.9 26.2 14.3 46 7.5 WNW 11 20 6 11 - - 0.0
16/08:00am 25.7 25.1 14.5 50 6.7 WNW 11 20 6 11 - - 0.0
16/07:30am 23.6 25.5 16.6 65 4.3 E 2 4 1 2 - - 0.0
16/07:00am 21.1 22.5 15.4 70 3.4 WNW 2 7 1 4 - - 0.0
16/06:30am 21.2 22.8 14.8 67 3.8 CALM 0 2 0 1 - - 0.0
16/06:00am 22.4 22.2 15.7 66 4.0 NE 11 17 6 9 - - 0.0
16/05:30am 22.3 22.0 15.4 65 4.1 NE 11 17 6 9 - - 0.0
16/05:00am 22.2 21.1 15.3 65 4.1 NE 15 20 8 11 - - 0.0
16/04:30am 22.3 21.0 14.9 63 4.4 NE 15 20 8 11 - - 0.0
16/04:00am 22.0 20.7 14.9 64 4.2 NE 15 17 8 9 - - 0.0
16/03:30am 21.4 21.0 15.3 68 3.6 NE 11 15 6 8 - - 0.0
16/03:00am 21.2 21.1 13.4 61 4.5 NNE 6 11 3 6 - - 0.0
16/02:30am 21.5 22.3 13.7 61 4.5 NNE 2 7 1 4 - - 0.0
16/02:00am 21.2 20.8 13.1 60 4.6 NNW 7 15 4 8 - - 0.0
16/01:30am 21.3 20.4 13.7 62 4.4 N 11 19 6 10 - - 0.0
16/01:00am 21.3 21.2 14.0 63 4.2 N 7 13 4 7 - - 0.0
16/12:30am 21.8 20.7 14.4 63 4.3 NNW 13 17 7 9 - - 0.0
16/12:00am 20.8 21.1 14.5 67 3.7 NW 6 13 3 7 - - 0.0
 
Date/Time
EST
Temp
°C
App
Temp
°C
Dew
Point
Rel
Hum
%
Delta-T
°C
Wind Press
QNH
hPa
Press
MSL
hPa
Rain
since 9 am
mm
Dir
 
Spd
km/h
Gust
km/h
Spd
kts
Gust
kts
15/11:30pm 20.6 20.7 14.5 68 3.6 NNW 7 15 4 8 - - 0.0
15/11:00pm 20.1 20.4 14.9 72 3.0 NW 7 13 4 7 - - 0.0
15/10:30pm 19.0 20.0 15.3 79 2.2 N 4 9 2 5 - - 0.0
15/10:00pm 20.1 19.5 16.7 81 2.1 NNW 15 20 8 11 - - 0.0
15/09:30pm 19.5 20.3 17.3 87 1.3 NW 9 13 5 7 - - 0.0
15/09:00pm 18.9 19.6 17.0 89 1.1 NW 9 15 5 8 - - 0.0
15/08:30pm 18.9 20.5 17.0 89 1.1 NNW 4 6 2 3 - - 0.0
15/08:00pm 19.6 21.0 17.7 89 1.2 NNW 7 9 4 5 - - 0.0
15/07:30pm 20.1 21.2 18.1 88 1.2 NNW 9 13 5 7 - - 0.0
15/07:00pm 20.2 21.3 18.0 87 1.4 NNW 9 13 5 7 - - 0.0
15/06:30pm 20.4 21.9 18.0 86 1.5 N 7 11 4 6 - - 0.0
15/06:00pm 20.6 20.9 18.0 85 1.6 N 13 19 7 10 - - 0.0
15/05:30pm 20.6 21.2 17.8 84 1.7 N 11 20 6 11 - - 0.0

Other Formats:

Comma delimited format used in spreadsheet applications
http://www.bom.gov.au/fwo/IDN60801/IDN60801.95749.axf

JavaScript Object Notation format (JSON) in row-major order
http://www.bom.gov.au/fwo/IDN60801/IDN60801.95749.json